Time;durP1;ratioP1;P1;durP2;ratioP2;P2;SDS_P1;SDS_P2;PMS_P1;PMS_P2;Temp;Humidity;BMP_temperature;BMP_pressure;BME280_temperature;BME280_humidity;BME280_pressure;Samples;Min_cycle;Max_cycle;Signal;HPM_P1;HPM_P2
2023/01/30 00:01:42;;;;;;;16.87;8.67;;;;;;;-0.18;100.00;94757.47;5050714;28;20695;-54
2023/01/30 00:04:08;;;;;;;19.33;9.43;;;;;;;0.00;100.00;94747.53;5050865;28;20636;-54
2023/01/30 00:06:34;;;;;;;16.47;8.47;;;;;;;-0.16;100.00;94791.50;5050713;28;20223;-55
2023/01/30 00:08:59;;;;;;;17.43;8.27;;;;;;;-0.32;100.00;94782.22;5050512;28;20620;-52
2023/01/30 00:11:27;;;;;;;17.87;9.13;;;;;;;-0.28;100.00;94776.22;5049367;28;20610;-52
2023/01/30 00:13:53;;;;;;;16.60;8.87;;;;;;;-0.21;100.00;94768.44;5050897;28;20224;-52
2023/01/30 00:16:18;;;;;;;15.90;8.13;;;;;;;-0.24;100.00;94763.53;5050494;28;20209;-57
2023/01/30 00:18:44;;;;;;;14.30;8.30;;;;;;;-0.44;100.00;94766.03;5050864;28;20594;-52
2023/01/30 00:21:12;;;;;;;14.40;8.13;;;;;;;-0.50;100.00;94753.00;5050525;28;20275;-55
2023/01/30 00:23:38;;;;;;;17.27;8.43;;;;;;;-0.48;100.00;94749.56;5050617;28;20229;-51
2023/01/30 00:26:05;;;;;;;16.07;8.67;;;;;;;-0.41;100.00;94725.16;5050625;28;20193;-54
2023/01/30 00:28:31;;;;;;;19.33;9.60;;;;;;;-0.60;100.00;94732.59;5050507;28;20641;-52
2023/01/30 00:30:56;;;;;;;15.83;8.40;;;;;;;-0.58;100.00;94753.31;5051671;28;20636;-56
2023/01/30 00:33:24;;;;;;;17.57;9.33;;;;;;;-0.53;100.00;94735.66;5054020;28;20216;-56
2023/01/30 00:35:51;;;;;;;16.07;9.30;;;;;;;-0.41;100.00;94713.50;5053721;28;20244;-55
2023/01/30 00:38:17;;;;;;;18.63;9.80;;;;;;;-0.52;100.00;94728.09;5053842;28;20217;-57
2023/01/30 00:40:43;;;;;;;21.27;10.03;;;;;;;-0.39;100.00;94700.97;5054045;28;20272;-57
2023/01/30 00:48:44;;;;;;;17.70;9.63;;;;;;;-0.53;100.00;94680.75;5054078;28;20223;-57
2023/01/30 00:51:09;;;;;;;19.60;9.10;;;;;;;-0.60;100.00;94680.19;5053607;28;20189;-52
2023/01/30 00:53:35;;;;;;;20.93;9.17;;;;;;;-0.57;100.00;94687.56;5053477;28;20209;-56
2023/01/30 00:56:00;;;;;;;13.87;7.80;;;;;;;-0.91;100.00;94644.91;5053504;28;20214;-54
2023/01/30 00:58:33;;;;;;;18.30;8.60;;;;;;;-0.78;100.00;94677.63;5053724;28;20237;-55
2023/01/30 01:00:58;;;;;;;18.47;9.00;;;;;;;-0.81;100.00;94676.09;5068924;28;20667;-56
2023/01/30 01:03:24;;;;;;;19.63;8.43;;;;;;;-0.46;100.00;94672.13;5053554;28;20651;-57
2023/01/30 01:05:49;;;;;;;17.37;8.77;;;;;;;-0.69;100.00;94693.06;5053200;28;20242;-52
2023/01/30 01:08:15;;;;;;;18.40;8.40;;;;;;;-0.68;100.00;94677.19;5053369;28;20237;-52
2023/01/30 01:10:40;;;;;;;16.70;8.37;;;;;;;-0.49;100.00;94665.59;5053357;28;20550;-56
2023/01/30 01:13:06;;;;;;;20.07;8.73;;;;;;;-0.53;100.00;94696.53;5053281;28;20354;-56
2023/01/30 01:15:32;;;;;;;17.40;8.50;;;;;;;-0.66;100.00;94694.59;5053256;28;20224;-52
2023/01/30 01:17:58;;;;;;;16.83;8.43;;;;;;;-0.70;100.00;94681.44;5053390;28;20645;-55
2023/01/30 01:20:24;;;;;;;22.30;9.27;;;;;;;-0.54;100.00;94677.44;5053198;28;20213;-54
2023/01/30 01:22:54;;;;;;;16.13;8.60;;;;;;;-0.80;100.00;94659.41;5053375;28;20216;-56
2023/01/30 01:25:20;;;;;;;17.03;8.30;;;;;;;-0.66;100.00;94650.50;5053211;28;20567;-56
2023/01/30 01:27:46;;;;;;;19.20;8.13;;;;;;;-0.53;100.00;94660.78;5053084;28;20228;-56
2023/01/30 01:30:12;;;;;;;17.57;7.97;;;;;;;-0.70;100.00;94663.97;5053037;28;20660;-56
2023/01/30 01:32:37;;;;;;;15.00;7.80;;;;;;;-0.51;100.00;94659.84;5052843;28;20220;-52
2023/01/30 01:35:03;;;;;;;15.97;8.07;;;;;;;-0.66;100.00;94675.44;5052819;28;20210;-54
2023/01/30 01:37:29;;;;;;;17.03;8.70;;;;;;;-0.76;100.00;94670.88;5052805;28;20213;-56
2023/01/30 01:42:39;;;;;;;18.77;9.20;;;;;;;-0.74;100.00;94662.47;5052560;28;20657;-57
2023/01/30 01:45:19;;;;;;;15.83;7.37;;;;;;;-0.70;100.00;94663.97;5052859;28;20223;-56
2023/01/30 01:47:56;;;;;;;19.03;8.60;;;;;;;-0.69;100.00;94673.09;5052703;28;20221;-58
2023/01/30 01:50:27;;;;;;;16.77;8.27;;;;;;;-0.72;100.00;94669.88;5052751;28;20362;-53
2023/01/30 01:52:56;;;;;;;15.53;7.83;;;;;;;-0.65;100.00;94674.59;5052842;28;20213;-55
2023/01/30 01:55:24;;;;;;;19.07;7.27;;;;;;;-0.51;100.00;94689.81;5052613;28;20228;-54
2023/01/30 01:57:58;;;;;;;14.20;7.67;;;;;;;-0.48;100.00;94643.91;5052731;28;20232;-52
2023/01/30 02:00:24;;;;;;;16.70;8.47;;;;;;;-0.56;100.00;94676.69;5052761;28;20645;-57
2023/01/30 02:02:58;;;;;;;15.93;8.27;;;;;;;-0.58;100.00;94687.59;5052746;28;20235;-52
2023/01/30 02:05:28;;;;;;;14.17;8.13;;;;;;;-0.58;100.00;94670.94;5052575;28;20188;-55
2023/01/30 02:08:02;;;;;;;18.17;7.80;;;;;;;-0.66;100.00;94679.63;5052611;28;20593;-53
2023/01/30 02:10:53;;;;;;;13.03;6.90;;;;;;;-0.58;100.00;94650.97;5052373;28;20258;-54
2023/01/30 02:13:19;;;;;;;15.93;7.90;;;;;;;-0.78;100.00;94670.97;5052512;28;20221;-56
2023/01/30 02:15:45;;;;;;;17.30;8.43;;;;;;;-0.55;100.00;94663.34;5051680;28;20219;-53
2023/01/30 02:18:13;;;;;;;17.40;8.33;;;;;;;-0.54;100.00;94684.91;5052259;28;20209;-55
2023/01/30 02:20:56;;;;;;;15.47;8.37;;;;;;;-0.54;100.00;94671.63;5052214;28;20192;-53
2023/01/30 02:23:59;;;;;;;14.63;7.93;;;;;;;-0.67;100.00;94702.97;5052342;28;20221;-57
2023/01/30 02:26:52;;;;;;;12.83;7.13;;;;;;;-0.56;100.00;94691.66;5052119;28;20196;-56
2023/01/30 02:29:54;;;;;;;15.80;7.97;;;;;;;-0.69;100.00;94689.75;5052795;28;20220;-56
2023/01/30 02:32:42;;;;;;;15.70;7.37;;;;;;;-0.69;100.00;94710.53;5052168;28;20189;-54
2023/01/30 02:35:07;;;;;;;14.73;7.37;;;;;;;-0.81;100.00;94686.06;5052018;28;20243;-56
2023/01/30 02:37:33;;;;;;;13.83;8.30;;;;;;;-0.59;100.00;94666.03;5050676;28;20220;-56
2023/01/30 02:40:07;;;;;;;21.10;8.90;;;;;;;-0.65;100.00;94678.75;5052035;28;20638;-54
2023/01/30 02:42:51;;;;;;;16.20;7.03;;;;;;;-0.45;100.00;94669.56;5051898;28;20774;-57
2023/01/30 02:45:19;;;;;;;14.70;7.80;;;;;;;-0.28;100.00;94677.16;5052073;28;20185;-52
2023/01/30 02:48:06;;;;;;;13.43;7.43;;;;;;;-0.43;100.00;94702.78;5051959;28;20295;-56
2023/01/30 02:50:57;;;;;;;13.07;7.23;;;;;;;-0.46;100.00;94679.59;5051850;28;20207;-53
2023/01/30 02:53:23;;;;;;;14.20;7.83;;;;;;;-0.31;100.00;94681.47;5051687;28;20217;-57
2023/01/30 02:55:48;;;;;;;14.60;7.43;;;;;;;-0.17;100.00;94672.50;5049484;28;20228;-57
2023/01/30 02:58:18;;;;;;;11.93;6.30;;;;;;;-0.39;100.00;94719.25;5051821;28;20216;-56
2023/01/30 03:00:52;;;;;;;11.67;6.97;;;;;;;-0.63;100.00;94726.94;5050236;28;20178;-56
2023/01/30 03:03:48;;;;;;;15.10;6.67;;;;;;;-0.90;100.00;94702.22;5051603;28;20268;-52
2023/01/30 03:06:43;;;;;;;13.67;6.83;;;;;;;-0.88;100.00;94685.50;5051632;28;20281;-52
2023/01/30 03:09:22;;;;;;;14.00;6.73;;;;;;;-0.88;100.00;94680.50;5050127;28;20221;-55
2023/01/30 03:12:25;;;;;;;10.87;6.60;;;;;;;-0.79;100.00;94678.53;5051480;28;20191;-51
2023/01/30 03:15:00;;;;;;;11.57;6.50;;;;;;;-0.59;100.00;94666.84;5050105;28;20728;-52
2023/01/30 03:17:27;;;;;;;12.97;6.43;;;;;;;-0.76;100.00;94681.69;5051524;28;20203;-52
2023/01/30 03:19:54;;;;;;;12.83;6.80;;;;;;;-0.73;100.00;94684.06;5051368;28;20189;-58
2023/01/30 03:22:20;;;;;;;13.00;6.47;;;;;;;-0.86;100.00;94687.94;5051249;28;20196;-53
2023/01/30 03:24:46;;;;;;;14.03;5.77;;;;;;;-0.94;100.00;94672.47;5051511;28;20189;-54
2023/01/30 03:27:12;;;;;;;12.40;6.57;;;;;;;-1.06;100.00;94641.34;5051161;28;20192;-54
2023/01/30 03:29:39;;;;;;;17.73;6.67;;;;;;;-0.91;100.00;94657.38;5051184;28;20553;-55
2023/01/30 03:32:05;;;;;;;12.00;6.23;;;;;;;-0.92;100.00;94679.00;5051062;28;20212;-53
2023/01/30 03:34:30;;;;;;;12.63;6.67;;;;;;;-0.88;100.00;94653.06;5051428;28;20736;-58
2023/01/30 03:36:56;;;;;;;11.90;6.33;;;;;;;-0.90;100.00;94646.50;5051356;28;20666;-57
2023/01/30 03:39:25;;;;;;;11.13;6.73;;;;;;;-0.95;100.00;94651.69;5051353;28;20628;-55
2023/01/30 03:41:52;;;;;;;11.77;6.27;;;;;;;-1.16;100.00;94624.31;5051022;28;20704;-53
2023/01/30 03:44:17;;;;;;;11.07;6.27;;;;;;;-0.91;100.00;94664.88;5050853;28;20216;-55
2023/01/30 03:46:50;;;;;;;14.90;6.43;;;;;;;-0.79;100.00;94656.88;5050890;28;20200;-53
2023/01/30 03:49:15;;;;;;;12.57;5.80;;;;;;;-0.86;100.00;94668.78;5051059;28;20239;-52
2023/01/30 03:51:41;;;;;;;10.40;5.70;;;;;;;-0.96;100.00;94674.19;5051148;28;20267;-53
2023/01/30 03:54:06;;;;;;;12.97;6.67;;;;;;;-1.00;100.00;94647.75;5066091;28;20311;-53
2023/01/30 03:56:32;;;;;;;17.00;7.40;;;;;;;-0.85;100.00;94634.69;5050700;28;20306;-52
2023/01/30 03:58:57;;;;;;;13.73;7.40;;;;;;;-0.76;100.00;94653.44;5051070;28;20228;-55
2023/01/30 04:01:22;;;;;;;13.23;6.67;;;;;;;-0.84;100.00;94646.25;5050607;28;20199;-53
2023/01/30 04:03:48;;;;;;;11.43;5.80;;;;;;;-1.04;100.00;94626.31;5050943;28;20213;-53
2023/01/30 04:06:13;;;;;;;12.57;6.97;;;;;;;-1.02;100.00;94622.91;5052485;28;20245;-51
2023/01/30 04:08:39;;;;;;;15.17;7.77;;;;;;;-0.86;100.00;94603.09;5054430;28;20337;-56
2023/01/30 04:11:04;;;;;;;11.50;6.80;;;;;;;-1.03;100.00;94608.78;5052916;28;20245;-56
2023/01/30 04:13:30;;;;;;;15.47;7.23;;;;;;;-0.92;100.00;94559.28;5054253;28;20216;-55
2023/01/30 04:16:19;;;;;;;16.20;7.73;;;;;;;-0.64;100.00;94605.50;5054168;28;20212;-57
2023/01/30 04:18:44;;;;;;;15.63;8.20;;;;;;;-1.25;100.00;94578.13;5053041;28;20635;-55
2023/01/30 04:21:11;;;;;;;13.57;7.20;;;;;;;-0.80;100.00;94636.97;5054111;28;20295;-56
2023/01/30 04:23:37;;;;;;;12.40;6.97;;;;;;;-1.02;100.00;94627.06;5054167;28;20224;-55
2023/01/30 04:26:04;;;;;;;15.50;7.13;;;;;;;-0.99;100.00;94617.75;5054002;28;20596;-55
2023/01/30 04:28:29;;;;;;;13.20;7.70;;;;;;;-1.07;100.00;94623.97;5053676;28;20213;-56
2023/01/30 04:30:54;;;;;;;14.20;7.23;;;;;;;-1.06;100.00;94613.09;5053757;28;20203;-56
2023/01/30 04:33:20;;;;;;;11.73;6.93;;;;;;;-1.11;100.00;94605.00;5053850;28;20223;-56
2023/01/30 04:35:53;;;;;;;15.53;7.80;;;;;;;-1.24;100.00;94588.91;5054047;28;20216;-53
2023/01/30 04:38:19;;;;;;;15.23;7.17;;;;;;;-1.29;100.00;94580.78;5053721;28;20209;-54
2023/01/30 04:40:53;;;;;;;14.80;7.70;;;;;;;-1.27;100.00;94567.41;5053929;28;20196;-55
2023/01/30 04:43:20;;;;;;;16.67;7.43;;;;;;;-1.05;100.00;94589.78;5053508;28;20297;-56
2023/01/30 04:45:47;;;;;;;12.37;7.57;;;;;;;-1.18;100.00;94586.16;5052430;28;20281;-56
2023/01/30 04:48:13;;;;;;;13.50;7.30;;;;;;;-1.13;100.00;94581.81;5053817;28;20209;-52
2023/01/30 04:50:40;;;;;;;16.53;7.77;;;;;;;-1.21;100.00;94572.13;5052387;28;20234;-56
2023/01/30 04:53:06;;;;;;;15.33;7.33;;;;;;;-1.24;100.00;94564.78;5053579;28;20222;-54
2023/01/30 04:55:32;;;;;;;15.53;7.53;;;;;;;-1.17;100.00;94545.41;5053703;28;20298;-53
2023/01/30 04:57:58;;;;;;;16.53;8.00;;;;;;;-0.74;100.00;94532.72;5053522;28;20221;-51
2023/01/30 05:00:23;;;;;;;17.77;8.43;;;;;;;-0.95;100.00;94598.53;5053470;28;20724;-54
2023/01/30 05:02:51;;;;;;;18.07;8.13;;;;;;;-0.97;100.00;94581.09;5053480;28;20216;-53
2023/01/30 05:05:17;;;;;;;18.83;7.07;;;;;;;-1.08;100.00;94570.78;5054124;28;20447;-56
2023/01/30 05:07:44;;;;;;;18.87;9.40;;;;;;;-1.13;100.00;94574.34;5053044;28;20212;-57
2023/01/30 05:10:11;;;;;;;18.17;8.90;;;;;;;-1.16;100.00;94559.50;5051994;28;20199;-53
2023/01/30 05:12:36;;;;;;;15.80;7.87;;;;;;;-1.09;100.00;94571.63;5053173;28;20299;-53
2023/01/30 05:15:02;;;;;;;16.63;8.30;;;;;;;-1.16;100.00;94564.47;5053220;28;20219;-55
2023/01/30 05:17:27;;;;;;;15.37;8.30;;;;;;;-1.13;100.00;94556.88;5052481;28;20220;-52
2023/01/30 05:19:53;;;;;;;14.77;7.93;;;;;;;-1.10;100.00;94555.06;5051967;28;20493;-53
2023/01/30 05:22:18;;;;;;;18.50;9.87;;;;;;;0.99;100.00;94568.75;5053110;28;20639;-57
2023/01/30 05:24:44;;;;;;;14.20;8.70;;;;;;;-0.10;100.00;94583.13;5053207;28;20189;-57
2023/01/30 05:27:09;;;;;;;12.83;8.17;;;;;;;-0.38;100.00;94645.97;5034996;28;20621;-58
2023/01/30 05:29:34;;;;;;;19.03;8.87;;;;;;;-0.65;100.00;94632.16;5053068;28;20200;-57
2023/01/30 05:32:00;;;;;;;17.90;8.60;;;;;;;-0.90;100.00;94621.56;5051547;28;20188;-55
2023/01/30 05:34:25;;;;;;;15.30;8.43;;;;;;;-0.83;100.00;94603.00;5051651;28;20220;-56
2023/01/30 05:36:50;;;;;;;15.47;8.07;;;;;;;-0.71;100.00;94604.16;5068323;28;20223;-54
2023/01/30 05:39:16;;;;;;;17.07;8.07;;;;;;;-0.69;100.00;94603.22;5053071;28;20291;-58
2023/01/30 05:41:41;;;;;;;18.77;8.67;;;;;;;-0.68;100.00;94604.81;5051688;28;20185;-58
2023/01/30 05:44:07;;;;;;;18.30;9.50;;;;;;;-0.43;100.00;94599.59;5052872;28;20745;-56
2023/01/30 05:46:32;;;;;;;16.93;8.40;;;;;;;-0.38;100.00;94603.50;5052743;28;20664;-53
2023/01/30 05:48:58;;;;;;;17.53;8.20;;;;;;;-0.46;100.00;94624.69;5053175;28;20292;-55
2023/01/30 05:51:25;;;;;;;20.13;10.80;;;;;;;-0.29;100.00;94600.63;5051250;28;20730;-57
2023/01/30 05:53:51;;;;;;;19.00;9.33;;;;;;;-0.50;100.00;94616.53;5052924;28;20217;-58
2023/01/30 05:56:17;;;;;;;20.73;9.53;;;;;;;-0.66;100.00;94599.75;5052733;28;20212;-57
2023/01/30 05:58:48;;;;;;;22.37;10.53;;;;;;;-0.82;100.00;94587.13;5052541;28;20220;-56
2023/01/30 06:01:14;;;;;;;19.63;10.43;;;;;;;-0.74;100.00;94580.13;5052643;28;20280;-57
2023/01/30 06:03:39;;;;;;;17.20;9.87;;;;;;;-0.71;100.00;94607.47;5052562;28;20314;-56
2023/01/30 06:06:05;;;;;;;24.97;10.67;;;;;;;-0.76;100.00;94596.03;5052643;28;20204;-54
2023/01/30 06:08:31;;;;;;;18.50;9.70;;;;;;;-1.01;100.00;94592.06;5052495;28;20216;-53
2023/01/30 06:11:06;;;;;;;27.43;10.67;;;;;;;-0.95;100.00;94578.56;5052461;28;20207;-54
2023/01/30 06:13:31;;;;;;;24.10;11.77;;;;;;;-0.92;100.00;94611.66;5067886;28;20220;-56
2023/01/30 06:15:57;;;;;;;20.43;10.57;;;;;;;-1.00;100.00;94586.22;5052286;28;20365;-55
2023/01/30 06:18:22;;;;;;;25.30;11.47;;;;;;;-0.98;100.00;94577.00;5052429;28;20216;-54
2023/01/30 06:20:49;;;;;;;22.00;11.43;;;;;;;-1.07;100.00;94566.59;5052363;28;20654;-53
2023/01/30 06:23:15;;;;;;;26.73;11.70;;;;;;;-1.28;100.00;94550.03;5052237;28;20255;-56
2023/01/30 06:25:47;;;;;;;22.27;12.17;;;;;;;-1.16;100.00;94564.47;5052272;28;20433;-57
2023/01/30 06:28:15;;;;;;;28.20;13.70;;;;;;;-1.23;100.00;94538.97;5052139;28;20215;-58
2023/01/30 06:30:40;;;;;;;27.13;12.37;;;;;;;-1.08;100.00;94555.00;5052078;28;20680;-54
2023/01/30 06:33:06;;;;;;;24.57;12.27;;;;;;;-1.04;100.00;94563.97;5052151;28;20686;-53
2023/01/30 06:35:32;;;;;;;26.47;12.47;;;;;;;-1.08;100.00;94565.78;5051949;28;20224;-54
2023/01/30 06:37:57;;;;;;;27.60;12.83;;;;;;;-1.05;100.00;94575.63;5052020;28;20223;-58
2023/01/30 06:40:23;;;;;;;27.03;12.37;;;;;;;-0.93;100.00;94585.09;5052118;28;20189;-56
2023/01/30 06:42:49;;;;;;;24.13;12.07;;;;;;;-0.74;100.00;94587.63;5051978;28;20239;-56
2023/01/30 06:45:17;;;;;;;28.93;13.70;;;;;;;-1.35;100.00;94544.47;5051927;28;20188;-54
2023/01/30 06:47:48;;;;;;;25.80;11.50;;;;;;;-0.75;100.00;94586.03;5034199;28;20244;-56
2023/01/30 06:50:14;;;;;;;26.50;11.73;;;;;;;-0.88;100.00;94590.72;5051813;28;20204;-57
2023/01/30 06:52:42;;;;;;;24.17;11.97;;;;;;;-0.68;100.00;94584.88;5052099;28;20246;-53
2023/01/30 06:55:09;;;;;;;26.73;13.17;;;;;;;-0.60;100.00;94615.31;5051837;28;20216;-57
2023/01/30 06:57:35;;;;;;;25.03;11.77;;;;;;;-0.61;100.00;94615.38;5051908;28;20217;-59
2023/01/30 07:00:01;;;;;;;23.10;11.33;;;;;;;-0.85;100.00;94604.75;5051704;28;20188;-57
2023/01/30 07:02:31;;;;;;;27.57;13.07;;;;;;;-0.83;100.00;94603.00;5052201;28;20196;-53
2023/01/30 07:04:56;;;;;;;26.60;13.37;;;;;;;-0.63;100.00;94604.66;5052102;28;20611;-54
2023/01/30 07:07:21;;;;;;;25.23;11.67;;;;;;;-0.88;100.00;94624.81;5051460;28;20319;-53
2023/01/30 07:09:47;;;;;;;22.23;12.17;;;;;;;-0.84;100.00;94616.31;5051873;28;20195;-57
2023/01/30 07:12:12;;;;;;;29.30;13.13;;;;;;;-0.94;100.00;94615.09;5051925;28;20781;-54
2023/01/30 07:14:38;;;;;;;21.43;11.27;;;;;;;-1.01;100.00;94603.75;5067185;28;20192;-56
2023/01/30 07:17:04;;;;;;;26.87;13.37;;;;;;;-1.10;100.00;94594.97;5051527;28;20318;-56
2023/01/30 07:19:29;;;;;;;27.83;12.90;;;;;;;-1.03;100.00;94590.53;5052207;28;20537;-56
2023/01/30 07:21:54;;;;;;;27.33;11.90;;;;;;;-0.92;100.00;94586.72;5051625;28;20205;-57
2023/01/30 07:24:20;;;;;;;29.20;11.47;;;;;;;-0.73;100.00;94593.44;5051008;28;20209;-56
2023/01/30 07:26:47;;;;;;;26.43;12.17;;;;;;;-0.98;100.00;94638.53;5051295;28;20674;-53
2023/01/30 07:29:12;;;;;;;28.27;12.40;;;;;;;-0.99;100.00;94609.50;5052180;28;20709;-55
2023/01/30 07:31:38;;;;;;;22.83;12.00;;;;;;;-0.83;100.00;94617.16;5051318;28;20181;-53
2023/01/30 07:34:03;;;;;;;22.93;11.17;;;;;;;-0.92;100.00;94620.81;5051822;28;20687;-56
2023/01/30 07:36:32;;;;;;;28.97;13.87;;;;;;;-1.02;100.00;94610.44;5051176;28;20213;-56
2023/01/30 07:39:00;;;;;;;22.93;11.43;;;;;;;-1.18;100.00;94561.22;5051405;28;20253;-54
2023/01/30 07:41:26;;;;;;;30.27;13.47;;;;;;;-1.02;100.00;94619.59;5067101;28;20282;-58
2023/01/30 07:43:52;;;;;;;24.67;12.00;;;;;;;-0.97;100.00;94647.66;5050505;28;20266;-53
2023/01/30 07:46:17;;;;;;;25.30;12.03;;;;;;;-0.92;100.00;94631.63;5051532;28;20197;-53
2023/01/30 07:48:44;;;;;;;27.10;12.67;;;;;;;-0.82;100.00;94632.03;5051206;28;20296;-52
2023/01/30 07:51:11;;;;;;;24.00;11.40;;;;;;;-0.63;100.00;94649.56;5051146;28;20273;-58
2023/01/30 07:53:37;;;;;;;23.40;12.43;;;;;;;-0.73;100.00;94638.34;5050538;28;20243;-57
2023/01/30 07:56:10;;;;;;;24.83;12.73;;;;;;;-0.67;100.00;94626.44;5052184;28;20583;-57
2023/01/30 07:58:36;;;;;;;22.83;11.90;;;;;;;-0.75;100.00;94650.88;5067362;28;20214;-59
2023/01/30 08:01:01;;;;;;;23.10;10.53;;;;;;;-0.78;100.00;94636.03;5052055;28;20572;-58
2023/01/30 08:03:27;;;;;;;25.07;12.50;;;;;;;-0.80;100.00;94602.03;5051254;28;20303;-54
2023/01/30 08:05:53;;;;;;;25.67;13.50;;;;;;;-0.56;100.00;94643.41;5051220;28;20219;-55
2023/01/30 08:08:19;;;;;;;27.03;11.97;;;;;;;-0.45;100.00;94621.31;5050919;28;20213;-53
2023/01/30 08:10:47;;;;;;;27.50;12.33;;;;;;;-0.41;100.00;94621.13;5050739;28;20190;-53
2023/01/30 08:13:13;;;;;;;21.53;11.60;;;;;;;-0.37;100.00;94632.63;5050981;28;20308;-58
2023/01/30 08:15:38;;;;;;;29.63;12.13;;;;;;;-0.39;100.00;94628.56;5051502;28;20295;-53
2023/01/30 08:18:08;;;;;;;20.70;10.33;;;;;;;-0.48;100.00;94649.72;5032742;28;20278;-57
2023/01/30 08:20:49;;;;;;;25.67;12.63;;;;;;;-0.48;100.00;94639.72;5050564;28;20250;-58
2023/01/30 08:23:22;;;;;;;22.20;10.27;;;;;;;-0.36;100.00;94643.38;5067864;28;20220;-55
2023/01/30 08:25:47;;;;;;;20.53;11.57;;;;;;;-0.39;100.00;94634.38;5049515;28;20193;-53
2023/01/30 08:28:16;;;;;;;25.93;11.17;;;;;;;-0.30;100.00;94633.13;5051132;28;20266;-54
2023/01/30 08:30:42;;;;;;;21.47;11.57;;;;;;;-0.26;100.00;94644.59;5050478;28;20272;-54
2023/01/30 08:33:07;;;;;;;23.77;11.73;;;;;;;-0.13;100.00;94631.53;5050822;28;20606;-55
2023/01/30 08:35:33;;;;;;;20.73;10.73;;;;;;;0.07;100.00;94654.81;5051194;28;20217;-55
2023/01/30 08:37:59;;;;;;;24.47;12.50;;;;;;;0.03;100.00;94668.31;5050599;28;20599;-58
2023/01/30 08:40:24;;;;;;;26.13;12.33;;;;;;;0.11;100.00;94656.31;5050360;28;20547;-55
2023/01/30 08:42:49;;;;;;;22.97;11.73;;;;;;;0.18;100.00;94632.69;5050508;28;20210;-58
2023/01/30 08:45:15;;;;;;;24.10;12.47;;;;;;;0.19;100.00;94631.78;5050339;28;20233;-57
2023/01/30 08:47:40;;;;;;;21.93;11.13;;;;;;;0.32;100.00;94685.34;5050166;28;20307;-54
2023/01/30 08:50:06;;;;;;;19.10;11.87;;;;;;;0.19;100.00;94667.59;5050312;28;20182;-54
2023/01/30 08:52:32;;;;;;;20.60;11.20;;;;;;;-0.24;100.00;94667.81;5051380;28;20212;-54
2023/01/30 08:54:57;;;;;;;21.00;11.07;;;;;;;-0.16;100.00;94649.16;5054191;28;20274;-57
2023/01/30 08:57:23;;;;;;;19.50;9.30;;;;;;;-0.37;100.00;94666.75;5052464;28;20233;-57
2023/01/30 08:59:50;;;;;;;25.93;11.40;;;;;;;-0.28;100.00;94667.16;5053614;28;20197;-54
2023/01/30 09:02:15;;;;;;;19.80;9.53;;;;;;;-0.25;100.00;94676.22;5053660;28;20197;-58
2023/01/30 09:04:41;;;;;;;20.20;9.67;;;;;;;-0.38;100.00;94668.44;5053522;28;20262;-55
2023/01/30 09:07:07;;;;;;;16.70;9.63;;;;;;;-0.16;100.00;94639.16;5054069;28;20234;-55
2023/01/30 09:09:32;;;;;;;14.63;8.73;;;;;;;-0.19;100.00;94713.41;5053337;28;20213;-55
2023/01/30 09:11:58;;;;;;;18.57;8.53;;;;;;;-0.19;100.00;94696.75;5053367;28;20188;-56
2023/01/30 09:14:23;;;;;;;18.57;9.30;;;;;;;0.03;100.00;94710.78;5053036;28;20205;-57
2023/01/30 09:16:55;;;;;;;17.77;8.93;;;;;;;0.02;100.00;94726.69;5053441;28;20310;-54
2023/01/30 09:19:22;;;;;;;18.20;8.93;;;;;;;0.13;100.00;94682.03;5053148;28;20242;-55
2023/01/30 09:21:49;;;;;;;15.80;8.70;;;;;;;0.00;100.00;94697.56;5052418;28;20235;-53
2023/01/30 09:24:15;;;;;;;16.77;8.23;;;;;;;-0.10;100.00;94668.84;5053555;28;20212;-56
2023/01/30 09:26:43;;;;;;;18.63;9.40;;;;;;;0.13;100.00;94629.56;5053505;28;20200;-56
2023/01/30 09:29:12;;;;;;;18.97;9.63;;;;;;;0.17;100.00;94651.03;5053117;28;20244;-53
2023/01/30 09:31:38;;;;;;;16.37;9.00;;;;;;;0.12;100.00;94646.25;5053302;28;20628;-57
2023/01/30 09:34:03;;;;;;;16.17;8.70;;;;;;;0.37;100.00;94661.75;5053465;28;20274;-55
2023/01/30 09:36:29;;;;;;;15.63;8.30;;;;;;;0.07;100.00;94652.31;5052824;28;20288;-54
2023/01/30 09:38:55;;;;;;;19.73;9.23;;;;;;;-0.22;100.00;94631.13;5052020;28;20303;-53
2023/01/30 09:41:37;;;;;;;16.47;8.53;;;;;;;-0.42;100.00;94603.72;5053179;28;20257;-54
2023/01/30 09:44:15;;;;;;;15.20;8.07;;;;;;;-0.26;100.00;94595.50;5052033;28;20228;-53
2023/01/30 09:47:08;;;;;;;13.40;7.30;;;;;;;-0.18;100.00;94585.16;5053079;28;20207;-56
2023/01/30 09:49:39;;;;;;;20.27;8.63;;;;;;;0.06;100.00;94605.75;5052855;28;20257;-56
2023/01/30 09:52:15;;;;;;;16.40;8.20;;;;;;;-0.23;100.00;94620.34;5052771;28;20192;-56
2023/01/30 09:54:44;;;;;;;15.33;8.27;;;;;;;-0.05;100.00;94554.56;5053010;28;20206;-58
2023/01/30 09:57:16;;;;;;;21.20;8.87;;;;;;;0.06;100.00;94525.78;5052372;28;20186;-57
2023/01/30 09:59:51;;;;;;;17.30;7.97;;;;;;;0.45;100.00;94596.41;5052294;28;20193;-60
2023/01/30 10:02:34;;;;;;;15.90;8.40;;;;;;;0.60;100.00;94605.69;5052725;28;20269;-53
2023/01/30 10:05:02;;;;;;;16.77;7.60;;;;;;;0.25;100.00;94629.00;5052908;28;20224;-54
2023/01/30 10:07:51;;;;;;;15.93;7.60;;;;;;;0.12;100.00;94603.78;5053135;28;20204;-58
2023/01/30 10:10:25;;;;;;;15.97;8.03;;;;;;;0.06;100.00;94568.28;5053649;28;20205;-54
2023/01/30 10:13:03;;;;;;;16.00;8.13;;;;;;;0.09;100.00;94575.59;5052278;28;20213;-57
2023/01/30 10:15:45;;;;;;;13.10;6.80;;;;;;;-0.02;100.00;94524.44;5052291;28;20213;-53
2023/01/30 10:18:22;;;;;;;13.97;8.60;;;;;;;-0.11;100.00;94554.84;5052290;28;20209;-55
2023/01/30 10:21:03;;;;;;;14.47;8.50;;;;;;;-0.08;100.00;94508.94;5051201;28;20608;-59
2023/01/30 10:23:37;;;;;;;16.00;8.73;;;;;;;-0.03;100.00;94542.81;5052040;28;20220;-54
2023/01/30 10:26:19;;;;;;;15.70;7.97;;;;;;;-0.02;100.00;94533.63;5052404;28;20195;-53
2023/01/30 10:28:55;;;;;;;19.40;8.67;;;;;;;0.15;100.00;94510.38;5052493;28;20221;-53
2023/01/30 10:31:25;;;;;;;15.67;8.83;;;;;;;0.20;100.00;94525.97;5052575;28;20181;-59
2023/01/30 10:34:13;;;;;;;16.93;8.57;;;;;;;0.53;100.00;94536.84;5051871;28;20217;-56
2023/01/30 10:36:59;;;;;;;21.27;8.37;;;;;;;0.36;100.00;94555.16;5051920;28;20213;-53
2023/01/30 10:39:48;;;;;;;16.20;8.67;;;;;;;0.36;100.00;94594.34;5051736;28;20218;-52
2023/01/30 10:42:21;;;;;;;19.20;9.40;;;;;;;-0.22;100.00;94562.00;5031288;28;20221;-54
2023/01/30 10:44:47;;;;;;;17.67;8.77;;;;;;;-0.21;100.00;94541.16;5052051;28;20255;-56
2023/01/30 10:47:25;;;;;;;19.17;9.63;;;;;;;-0.06;100.00;94552.94;5051933;28;20186;-54
2023/01/30 10:49:54;;;;;;;16.63;8.97;;;;;;;0.05;100.00;94559.13;5051947;28;20201;-54
2023/01/30 10:52:35;;;;;;;16.43;9.17;;;;;;;0.34;100.00;94566.13;5051553;28;20268;-53
2023/01/30 10:55:00;;;;;;;19.53;9.80;;;;;;;0.34;100.00;94581.94;5051841;28;20679;-53
2023/01/30 10:57:52;;;;;;;18.73;10.07;;;;;;;0.79;100.00;94577.22;5051625;28;20243;-57
2023/01/30 11:00:28;;;;;;;17.77;9.33;;;;;;;0.51;100.00;94601.13;5051873;28;20230;-57
2023/01/30 11:03:18;;;;;;;15.07;8.00;;;;;;;1.11;100.00;94619.91;5051311;28;20296;-57
2023/01/30 11:05:58;;;;;;;19.80;9.07;;;;;;;1.14;100.00;94613.06;5050505;28;20303;-54
2023/01/30 11:08:31;;;;;;;17.40;9.47;;;;;;;0.86;100.00;94600.25;5051773;28;20329;-53
2023/01/30 11:10:57;;;;;;;17.77;9.13;;;;;;;0.75;100.00;94597.44;5051416;28;20724;-54
2023/01/30 11:13:29;;;;;;;11.77;7.47;;;;;;;0.78;100.00;94582.31;5051734;28;20244;-53
2023/01/30 11:15:57;;;;;;;20.63;9.57;;;;;;;0.69;100.00;94587.75;5050155;28;20745;-57
2023/01/30 11:18:24;;;;;;;17.47;9.20;;;;;;;0.50;100.00;94544.50;5051433;28;20687;-58
2023/01/30 11:21:18;;;;;;;19.87;9.60;;;;;;;1.17;100.00;94497.75;5051136;28;20240;-57
2023/01/30 11:23:44;;;;;;;23.47;10.47;;;;;;;1.40;100.00;94589.22;5049638;28;20258;-58
2023/01/30 11:26:20;;;;;;;17.53;8.83;;;;;;;1.67;100.00;94591.16;5049821;28;20862;-57
2023/01/30 11:28:46;;;;;;;14.97;8.23;;;;;;;1.36;100.00;94612.78;5051413;28;20254;-56
2023/01/30 11:31:21;;;;;;;19.33;10.23;;;;;;;1.08;100.00;94558.28;5051340;28;20324;-59
2023/01/30 11:34:04;;;;;;;16.07;9.07;;;;;;;1.12;100.00;94574.78;5051106;28;20844;-58
2023/01/30 11:36:32;;;;;;;14.63;8.30;;;;;;;0.74;100.00;94553.31;5051562;28;20596;-56